LHDC 230715Z AUTO VRB01KT CAVOK 11/08 Q1021 NOSIG
From batch tds/metars/production/2022/9/23/h07_m55_metars.cache.csv.gz
Observed at (13 days ago)
Identifier LHDC
talk